sensor_id;sensor_type;location;lat;lon;timestamp;P1;durP1;ratioP1;P2;durP2;ratioP2
5414;SDS011;2730;51.512;7.504;2023-04-03T00:01:40;14.77;;;7.40;;
5414;SDS011;2730;51.512;7.504;2023-04-03T00:04:06;14.60;;;7.75;;
5414;SDS011;2730;51.512;7.504;2023-04-03T00:06:33;14.57;;;8.40;;
5414;SDS011;2730;51.512;7.504;2023-04-03T00:09:02;14.98;;;7.85;;
5414;SDS011;2730;51.512;7.504;2023-04-03T00:11:28;16.15;;;7.78;;
5414;SDS011;2730;51.512;7.504;2023-04-03T00:13:55;12.80;;;7.45;;
5414;SDS011;2730;51.512;7.504;2023-04-03T00:16:22;13.38;;;7.85;;
5414;SDS011;2730;51.512;7.504;2023-04-03T00:18:49;16.80;;;7.63;;
5414;SDS011;2730;51.512;7.504;2023-04-03T00:21:15;14.27;;;8.30;;
5414;SDS011;2730;51.512;7.504;2023-04-03T00:23:42;16.90;;;9.50;;
5414;SDS011;2730;51.512;7.504;2023-04-03T00:26:10;11.25;;;7.78;;
5414;SDS011;2730;51.512;7.504;2023-04-03T00:28:37;13.20;;;8.18;;
5414;SDS011;2730;51.512;7.504;2023-04-03T00:31:04;19.38;;;8.65;;
5414;SDS011;2730;51.512;7.504;2023-04-03T00:33:31;13.75;;;8.52;;
5414;SDS011;2730;51.512;7.504;2023-04-03T00:35:58;11.63;;;7.72;;
5414;SDS011;2730;51.512;7.504;2023-04-03T00:38:24;14.15;;;7.88;;
5414;SDS011;2730;51.512;7.504;2023-04-03T00:40:51;17.42;;;8.18;;
5414;SDS011;2730;51.512;7.504;2023-04-03T00:43:20;11.65;;;7.50;;
5414;SDS011;2730;51.512;7.504;2023-04-03T00:45:48;11.23;;;6.93;;
5414;SDS011;2730;51.512;7.504;2023-04-03T00:48:16;8.13;;;6.18;;
5414;SDS011;2730;51.512;7.504;2023-04-03T00:50:46;13.70;;;5.97;;
5414;SDS011;2730;51.512;7.504;2023-04-03T00:53:16;13.43;;;5.97;;
5414;SDS011;2730;51.512;7.504;2023-04-03T00:55:46;7.10;;;4.57;;
5414;SDS011;2730;51.512;7.504;2023-04-03T00:58:14;10.63;;;5.38;;
5414;SDS011;2730;51.512;7.504;2023-04-03T01:00:46;10.02;;;5.57;;
5414;SDS011;2730;51.512;7.504;2023-04-03T01:03:18;9.18;;;5.32;;
5414;SDS011;2730;51.512;7.504;2023-04-03T01:05:45;5.22;;;4.80;;
5414;SDS011;2730;51.512;7.504;2023-04-03T01:08:12;9.05;;;5.30;;
5414;SDS011;2730;51.512;7.504;2023-04-03T01:10:38;8.18;;;5.13;;
5414;SDS011;2730;51.512;7.504;2023-04-03T01:13:17;8.80;;;5.00;;
5414;SDS011;2730;51.512;7.504;2023-04-03T01:15:46;9.27;;;5.18;;
5414;SDS011;2730;51.512;7.504;2023-04-03T01:18:13;8.20;;;4.57;;
5414;SDS011;2730;51.512;7.504;2023-04-03T01:21:06;7.22;;;4.63;;
5414;SDS011;2730;51.512;7.504;2023-04-03T01:23:58;10.90;;;4.28;;
5414;SDS011;2730;51.512;7.504;2023-04-03T01:26:37;8.13;;;4.93;;
5414;SDS011;2730;51.512;7.504;2023-04-03T01:29:05;6.68;;;4.65;;
5414;SDS011;2730;51.512;7.504;2023-04-03T01:31:40;6.47;;;3.88;;
5414;SDS011;2730;51.512;7.504;2023-04-03T01:34:16;5.45;;;3.53;;
5414;SDS011;2730;51.512;7.504;2023-04-03T01:36:43;6.95;;;3.55;;
5414;SDS011;2730;51.512;7.504;2023-04-03T01:39:10;7.85;;;3.70;;
5414;SDS011;2730;51.512;7.504;2023-04-03T01:41:38;5.25;;;3.30;;
5414;SDS011;2730;51.512;7.504;2023-04-03T01:44:04;8.52;;;3.80;;
5414;SDS011;2730;51.512;7.504;2023-04-03T01:46:31;3.47;;;2.70;;
5414;SDS011;2730;51.512;7.504;2023-04-03T01:49:00;10.90;;;4.00;;
5414;SDS011;2730;51.512;7.504;2023-04-03T01:51:27;6.93;;;3.67;;
5414;SDS011;2730;51.512;7.504;2023-04-03T01:53:53;4.43;;;3.45;;
5414;SDS011;2730;51.512;7.504;2023-04-03T01:56:20;4.20;;;2.90;;
5414;SDS011;2730;51.512;7.504;2023-04-03T01:58:47;10.43;;;3.88;;
5414;SDS011;2730;51.512;7.504;2023-04-03T02:01:14;3.63;;;3.33;;
5414;SDS011;2730;51.512;7.504;2023-04-03T02:03:41;13.68;;;4.18;;
5414;SDS011;2730;51.512;7.504;2023-04-03T02:06:09;15.20;;;3.95;;
5414;SDS011;2730;51.512;7.504;2023-04-03T02:08:36;8.57;;;4.47;;
5414;SDS011;2730;51.512;7.504;2023-04-03T02:11:03;8.50;;;4.20;;
5414;SDS011;2730;51.512;7.504;2023-04-03T02:13:29;6.22;;;4.93;;
5414;SDS011;2730;51.512;7.504;2023-04-03T02:15:56;10.77;;;4.70;;
5414;SDS011;2730;51.512;7.504;2023-04-03T02:18:24;4.88;;;3.42;;
5414;SDS011;2730;51.512;7.504;2023-04-03T02:20:50;5.03;;;3.78;;
5414;SDS011;2730;51.512;7.504;2023-04-03T02:23:18;7.50;;;4.10;;
5414;SDS011;2730;51.512;7.504;2023-04-03T02:25:45;4.20;;;3.78;;
5414;SDS011;2730;51.512;7.504;2023-04-03T02:28:14;7.57;;;4.95;;
5414;SDS011;2730;51.512;7.504;2023-04-03T02:30:40;8.82;;;3.40;;
5414;SDS011;2730;51.512;7.504;2023-04-03T02:33:07;9.20;;;3.85;;
5414;SDS011;2730;51.512;7.504;2023-04-03T02:35:34;7.80;;;3.90;;
5414;SDS011;2730;51.512;7.504;2023-04-03T02:38:02;10.68;;;3.30;;
5414;SDS011;2730;51.512;7.504;2023-04-03T02:40:30;8.00;;;2.90;;
5414;SDS011;2730;51.512;7.504;2023-04-03T02:42:56;5.55;;;2.35;;
5414;SDS011;2730;51.512;7.504;2023-04-03T02:45:23;5.45;;;2.10;;
5414;SDS011;2730;51.512;7.504;2023-04-03T02:47:50;4.45;;;2.35;;
5414;SDS011;2730;51.512;7.504;2023-04-03T02:50:17;3.80;;;2.20;;
5414;SDS011;2730;51.512;7.504;2023-04-03T02:52:43;4.72;;;2.60;;
5414;SDS011;2730;51.512;7.504;2023-04-03T02:55:12;5.25;;;2.85;;
5414;SDS011;2730;51.512;7.504;2023-04-03T02:57:41;2.88;;;2.40;;
5414;SDS011;2730;51.512;7.504;2023-04-03T03:00:08;7.40;;;2.15;;
5414;SDS011;2730;51.512;7.504;2023-04-03T03:02:36;3.00;;;1.92;;
5414;SDS011;2730;51.512;7.504;2023-04-03T03:05:03;2.50;;;2.15;;
5414;SDS011;2730;51.512;7.504;2023-04-03T03:07:30;4.03;;;2.10;;
5414;SDS011;2730;51.512;7.504;2023-04-03T03:09:57;3.45;;;2.08;;
5414;SDS011;2730;51.512;7.504;2023-04-03T03:12:24;2.88;;;2.08;;
5414;SDS011;2730;51.512;7.504;2023-04-03T03:14:52;2.13;;;1.80;;
5414;SDS011;2730;51.512;7.504;2023-04-03T03:17:19;2.40;;;2.20;;
5414;SDS011;2730;51.512;7.504;2023-04-03T03:19:46;3.50;;;2.35;;
5414;SDS011;2730;51.512;7.504;2023-04-03T03:22:12;5.45;;;2.00;;
5414;SDS011;2730;51.512;7.504;2023-04-03T03:24:39;5.20;;;2.42;;
5414;SDS011;2730;51.512;7.504;2023-04-03T03:27:06;4.00;;;1.83;;
5414;SDS011;2730;51.512;7.504;2023-04-03T03:29:33;5.78;;;2.30;;
5414;SDS011;2730;51.512;7.504;2023-04-03T03:32:01;5.05;;;1.92;;
5414;SDS011;2730;51.512;7.504;2023-04-03T03:34:27;1.70;;;1.58;;
5414;SDS011;2730;51.512;7.504;2023-04-03T03:36:54;2.90;;;2.10;;
5414;SDS011;2730;51.512;7.504;2023-04-03T03:39:21;6.07;;;2.17;;
5414;SDS011;2730;51.512;7.504;2023-04-03T03:41:48;2.08;;;1.85;;
5414;SDS011;2730;51.512;7.504;2023-04-03T03:44:15;3.70;;;1.58;;
5414;SDS011;2730;51.512;7.504;2023-04-03T03:46:42;6.60;;;2.03;;
5414;SDS011;2730;51.512;7.504;2023-04-03T03:49:10;6.57;;;2.28;;
5414;SDS011;2730;51.512;7.504;2023-04-03T03:51:37;8.45;;;2.00;;
5414;SDS011;2730;51.512;7.504;2023-04-03T03:54:04;1.60;;;1.50;;
5414;SDS011;2730;51.512;7.504;2023-04-03T03:56:31;3.70;;;1.60;;
5414;SDS011;2730;51.512;7.504;2023-04-03T03:58:58;2.65;;;1.63;;
5414;SDS011;2730;51.512;7.504;2023-04-03T04:01:25;2.45;;;1.60;;
5414;SDS011;2730;51.512;7.504;2023-04-03T04:03:52;5.72;;;1.25;;
5414;SDS011;2730;51.512;7.504;2023-04-03T04:06:21;3.63;;;1.77;;
5414;SDS011;2730;51.512;7.504;2023-04-03T04:08:48;8.85;;;2.08;;
5414;SDS011;2730;51.512;7.504;2023-04-03T04:11:15;4.22;;;1.85;;
5414;SDS011;2730;51.512;7.504;2023-04-03T04:13:41;2.70;;;1.45;;
5414;SDS011;2730;51.512;7.504;2023-04-03T04:16:08;4.90;;;1.75;;
5414;SDS011;2730;51.512;7.504;2023-04-03T04:18:35;1.63;;;1.50;;
5414;SDS011;2730;51.512;7.504;2023-04-03T04:21:02;2.42;;;1.77;;
5414;SDS011;2730;51.512;7.504;2023-04-03T04:23:30;5.70;;;1.38;;
5414;SDS011;2730;51.512;7.504;2023-04-03T04:25:57;2.15;;;1.67;;
5414;SDS011;2730;51.512;7.504;2023-04-03T04:28:24;2.60;;;1.45;;
5414;SDS011;2730;51.512;7.504;2023-04-03T04:30:51;10.05;;;1.90;;
5414;SDS011;2730;51.512;7.504;2023-04-03T04:33:17;4.00;;;1.95;;
5414;SDS011;2730;51.512;7.504;2023-04-03T04:35:46;1.65;;;1.30;;
5414;SDS011;2730;51.512;7.504;2023-04-03T04:38:13;3.13;;;2.20;;
5414;SDS011;2730;51.512;7.504;2023-04-03T04:40:41;2.08;;;1.75;;
5414;SDS011;2730;51.512;7.504;2023-04-03T04:43:08;3.45;;;1.70;;
5414;SDS011;2730;51.512;7.504;2023-04-03T04:45:35;3.08;;;1.80;;
5414;SDS011;2730;51.512;7.504;2023-04-03T04:48:02;7.32;;;2.67;;
5414;SDS011;2730;51.512;7.504;2023-04-03T04:50:29;2.83;;;2.40;;
5414;SDS011;2730;51.512;7.504;2023-04-03T04:52:56;2.20;;;1.60;;
5414;SDS011;2730;51.512;7.504;2023-04-03T04:55:23;4.05;;;1.58;;
5414;SDS011;2730;51.512;7.504;2023-04-03T04:57:51;1.70;;;1.60;;
5414;SDS011;2730;51.512;7.504;2023-04-03T05:00:18;3.65;;;2.40;;
5414;SDS011;2730;51.512;7.504;2023-04-03T05:02:45;3.95;;;1.80;;
5414;SDS011;2730;51.512;7.504;2023-04-03T05:05:12;9.45;;;2.70;;
5414;SDS011;2730;51.512;7.504;2023-04-03T05:07:39;7.18;;;2.13;;
5414;SDS011;2730;51.512;7.504;2023-04-03T05:10:07;2.63;;;1.80;;
5414;SDS011;2730;51.512;7.504;2023-04-03T05:12:35;4.35;;;2.10;;
5414;SDS011;2730;51.512;7.504;2023-04-03T05:15:03;3.38;;;2.28;;
5414;SDS011;2730;51.512;7.504;2023-04-03T05:17:31;3.00;;;2.17;;
5414;SDS011;2730;51.512;7.504;2023-04-03T05:19:57;7.90;;;2.20;;
5414;SDS011;2730;51.512;7.504;2023-04-03T05:22:24;2.95;;;2.05;;
5414;SDS011;2730;51.512;7.504;2023-04-03T05:24:51;4.65;;;2.08;;
5414;SDS011;2730;51.512;7.504;2023-04-03T05:27:18;2.47;;;1.58;;
5414;SDS011;2730;51.512;7.504;2023-04-03T05:29:44;4.22;;;1.77;;
5414;SDS011;2730;51.512;7.504;2023-04-03T05:32:13;3.90;;;2.15;;
5414;SDS011;2730;51.512;7.504;2023-04-03T05:34:39;8.65;;;2.10;;
5414;SDS011;2730;51.512;7.504;2023-04-03T05:37:06;10.90;;;1.90;;
5414;SDS011;2730;51.512;7.504;2023-04-03T05:39:33;4.03;;;2.15;;
5414;SDS011;2730;51.512;7.504;2023-04-03T05:42:00;3.75;;;1.60;;
5414;SDS011;2730;51.512;7.504;2023-04-03T05:44:26;3.92;;;2.35;;
5414;SDS011;2730;51.512;7.504;2023-04-03T05:46:53;7.43;;;2.30;;
5414;SDS011;2730;51.512;7.504;2023-04-03T05:49:21;4.45;;;2.40;;
5414;SDS011;2730;51.512;7.504;2023-04-03T05:51:48;3.28;;;2.22;;
5414;SDS011;2730;51.512;7.504;2023-04-03T05:54:18;4.05;;;1.80;;
5414;SDS011;2730;51.512;7.504;2023-04-03T05:56:47;6.47;;;1.70;;
5414;SDS011;2730;51.512;7.504;2023-04-03T05:59:15;4.90;;;2.15;;
5414;SDS011;2730;51.512;7.504;2023-04-03T06:01:42;9.60;;;2.00;;
5414;SDS011;2730;51.512;7.504;2023-04-03T06:04:09;4.47;;;2.40;;
5414;SDS011;2730;51.512;7.504;2023-04-03T06:06:44;3.50;;;1.85;;
5414;SDS011;2730;51.512;7.504;2023-04-03T06:09:12;12.20;;;2.40;;
5414;SDS011;2730;51.512;7.504;2023-04-03T06:11:40;2.92;;;2.33;;
5414;SDS011;2730;51.512;7.504;2023-04-03T06:14:07;8.82;;;2.30;;
5414;SDS011;2730;51.512;7.504;2023-04-03T06:16:34;6.07;;;1.90;;
5414;SDS011;2730;51.512;7.504;2023-04-03T06:19:02;3.78;;;1.50;;
5414;SDS011;2730;51.512;7.504;2023-04-03T06:21:29;2.35;;;1.80;;
5414;SDS011;2730;51.512;7.504;2023-04-03T06:23:57;4.60;;;1.80;;
5414;SDS011;2730;51.512;7.504;2023-04-03T06:26:24;3.53;;;2.33;;
5414;SDS011;2730;51.512;7.504;2023-04-03T06:28:52;3.90;;;1.60;;
5414;SDS011;2730;51.512;7.504;2023-04-03T06:31:19;5.57;;;1.60;;
5414;SDS011;2730;51.512;7.504;2023-04-03T06:33:45;1.73;;;1.50;;
5414;SDS011;2730;51.512;7.504;2023-04-03T06:36:12;4.82;;;1.77;;
5414;SDS011;2730;51.512;7.504;2023-04-03T06:38:40;4.88;;;1.60;;
5414;SDS011;2730;51.512;7.504;2023-04-03T06:41:08;3.95;;;1.60;;
5414;SDS011;2730;51.512;7.504;2023-04-03T06:43:35;3.72;;;1.60;;
5414;SDS011;2730;51.512;7.504;2023-04-03T06:46:02;6.93;;;1.60;;
5414;SDS011;2730;51.512;7.504;2023-04-03T06:48:29;2.88;;;2.10;;
5414;SDS011;2730;51.512;7.504;2023-04-03T06:50:56;8.55;;;1.70;;
5414;SDS011;2730;51.512;7.504;2023-04-03T06:53:22;2.35;;;1.27;;
5414;SDS011;2730;51.512;7.504;2023-04-03T06:55:50;1.40;;;1.30;;
5414;SDS011;2730;51.512;7.504;2023-04-03T06:58:18;7.22;;;1.73;;
5414;SDS011;2730;51.512;7.504;2023-04-03T07:00:45;4.65;;;1.65;;
5414;SDS011;2730;51.512;7.504;2023-04-03T07:03:12;4.90;;;1.75;;
5414;SDS011;2730;51.512;7.504;2023-04-03T07:05:39;6.07;;;2.00;;
5414;SDS011;2730;51.512;7.504;2023-04-03T07:08:07;8.93;;;1.50;;
5414;SDS011;2730;51.512;7.504;2023-04-03T07:10:34;1.92;;;1.23;;
5414;SDS011;2730;51.512;7.504;2023-04-03T07:13:01;1.63;;;1.15;;
5414;SDS011;2730;51.512;7.504;2023-04-03T07:15:29;3.85;;;1.42;;
5414;SDS011;2730;51.512;7.504;2023-04-03T07:17:56;2.50;;;1.30;;
5414;SDS011;2730;51.512;7.504;2023-04-03T07:20:23;3.22;;;1.25;;
5414;SDS011;2730;51.512;7.504;2023-04-03T07:22:50;2.08;;;1.70;;
5414;SDS011;2730;51.512;7.504;2023-04-03T07:25:16;1.42;;;1.00;;
5414;SDS011;2730;51.512;7.504;2023-04-03T07:27:43;2.30;;;2.03;;
5414;SDS011;2730;51.512;7.504;2023-04-03T07:30:10;2.75;;;1.40;;
5414;SDS011;2730;51.512;7.504;2023-04-03T07:32:40;6.22;;;2.05;;
5414;SDS011;2730;51.512;7.504;2023-04-03T07:35:07;12.80;;;1.40;;
5414;SDS011;2730;51.512;7.504;2023-04-03T07:37:34;2.28;;;1.30;;
5414;SDS011;2730;51.512;7.504;2023-04-03T07:40:01;2.63;;;0.98;;
5414;SDS011;2730;51.512;7.504;2023-04-03T07:42:29;1.75;;;1.10;;
5414;SDS011;2730;51.512;7.504;2023-04-03T07:44:56;5.45;;;1.33;;
5414;SDS011;2730;51.512;7.504;2023-04-03T07:47:23;2.47;;;1.40;;
5414;SDS011;2730;51.512;7.504;2023-04-03T07:49:51;2.08;;;1.60;;
5414;SDS011;2730;51.512;7.504;2023-04-03T07:52:18;1.95;;;1.25;;
5414;SDS011;2730;51.512;7.504;2023-04-03T07:54:45;2.10;;;1.60;;
5414;SDS011;2730;51.512;7.504;2023-04-03T07:57:11;5.70;;;1.70;;
5414;SDS011;2730;51.512;7.504;2023-04-03T07:59:38;2.08;;;1.75;;
5414;SDS011;2730;51.512;7.504;2023-04-03T08:02:08;1.77;;;1.20;;
5414;SDS011;2730;51.512;7.504;2023-04-03T08:04:35;3.15;;;1.85;;
5414;SDS011;2730;51.512;7.504;2023-04-03T08:07:03;2.85;;;1.27;;
5414;SDS011;2730;51.512;7.504;2023-04-03T08:09:30;4.50;;;2.05;;
5414;SDS011;2730;51.512;7.504;2023-04-03T08:11:57;3.60;;;1.70;;
5414;SDS011;2730;51.512;7.504;2023-04-03T08:14:24;7.90;;;1.60;;
5414;SDS011;2730;51.512;7.504;2023-04-03T08:16:51;5.72;;;1.65;;
5414;SDS011;2730;51.512;7.504;2023-04-03T08:19:18;5.47;;;1.55;;
5414;SDS011;2730;51.512;7.504;2023-04-03T08:21:45;4.20;;;1.55;;
5414;SDS011;2730;51.512;7.504;2023-04-03T08:24:13;3.72;;;1.60;;
5414;SDS011;2730;51.512;7.504;2023-04-03T08:26:40;2.17;;;1.45;;
5414;SDS011;2730;51.512;7.504;2023-04-03T08:29:07;2.90;;;1.83;;
5414;SDS011;2730;51.512;7.504;2023-04-03T08:31:33;4.82;;;1.38;;
5414;SDS011;2730;51.512;7.504;2023-04-03T08:34:00;2.60;;;1.42;;
5414;SDS011;2730;51.512;7.504;2023-04-03T08:36:28;2.88;;;1.48;;
5414;SDS011;2730;51.512;7.504;2023-04-03T08:38:56;4.95;;;1.55;;
5414;SDS011;2730;51.512;7.504;2023-04-03T08:41:27;2.13;;;1.45;;
5414;SDS011;2730;51.512;7.504;2023-04-03T08:43:59;1.55;;;1.40;;
5414;SDS011;2730;51.512;7.504;2023-04-03T08:46:33;3.72;;;1.35;;
5414;SDS011;2730;51.512;7.504;2023-04-03T08:49:07;2.80;;;1.50;;
5414;SDS011;2730;51.512;7.504;2023-04-03T08:51:41;3.63;;;1.60;;
5414;SDS011;2730;51.512;7.504;2023-04-03T08:54:17;2.40;;;1.05;;
5414;SDS011;2730;51.512;7.504;2023-04-03T08:56:55;2.28;;;1.20;;
5414;SDS011;2730;51.512;7.504;2023-04-03T08:59:24;3.88;;;1.25;;
5414;SDS011;2730;51.512;7.504;2023-04-03T09:01:55;1.80;;;1.58;;
5414;SDS011;2730;51.512;7.504;2023-04-03T09:04:25;5.53;;;1.40;;
5414;SDS011;2730;51.512;7.504;2023-04-03T09:06:54;1.60;;;1.10;;
5414;SDS011;2730;51.512;7.504;2023-04-03T09:09:27;2.45;;;1.40;;
5414;SDS011;2730;51.512;7.504;2023-04-03T09:12:03;3.20;;;1.60;;
5414;SDS011;2730;51.512;7.504;2023-04-03T09:14:40;3.65;;;1.60;;
5414;SDS011;2730;51.512;7.504;2023-04-03T09:17:13;2.00;;;1.33;;
5414;SDS011;2730;51.512;7.504;2023-04-03T09:19:48;3.80;;;2.65;;
5414;SDS011;2730;51.512;7.504;2023-04-03T09:22:22;1.63;;;1.50;;
5414;SDS011;2730;51.512;7.504;2023-04-03T09:24:52;4.57;;;1.52;;
5414;SDS011;2730;51.512;7.504;2023-04-03T09:27:26;1.77;;;1.40;;
5414;SDS011;2730;51.512;7.504;2023-04-03T09:29:53;5.55;;;1.45;;
5414;SDS011;2730;51.512;7.504;2023-04-03T09:32:25;2.65;;;1.17;;
5414;SDS011;2730;51.512;7.504;2023-04-03T09:34:54;2.38;;;1.45;;
5414;SDS011;2730;51.512;7.504;2023-04-03T09:37:34;3.30;;;1.73;;
5414;SDS011;2730;51.512;7.504;2023-04-03T09:40:04;1.38;;;1.27;;
5414;SDS011;2730;51.512;7.504;2023-04-03T09:42:34;10.57;;;1.40;;
5414;SDS011;2730;51.512;7.504;2023-04-03T09:45:18;1.20;;;1.10;;
5414;SDS011;2730;51.512;7.504;2023-04-03T09:47:49;1.67;;;1.33;;
5414;SDS011;2730;51.512;7.504;2023-04-03T09:50:32;2.45;;;1.42;;
5414;SDS011;2730;51.512;7.504;2023-04-03T09:53:00;3.17;;;1.50;;
5414;SDS011;2730;51.512;7.504;2023-04-03T09:55:31;4.38;;;1.60;;
5414;SDS011;2730;51.512;7.504;2023-04-03T09:58:00;3.05;;;1.23;;
5414;SDS011;2730;51.512;7.504;2023-04-03T10:00:30;2.00;;;1.10;;
5414;SDS011;2730;51.512;7.504;2023-04-03T10:02:59;3.22;;;1.65;;
5414;SDS011;2730;51.512;7.504;2023-04-03T10:05:28;3.47;;;1.52;;
5414;SDS011;2730;51.512;7.504;2023-04-03T10:08:10;2.10;;;1.63;;
5414;SDS011;2730;51.512;7.504;2023-04-03T10:10:46;1.65;;;1.20;;
5414;SDS011;2730;51.512;7.504;2023-04-03T10:13:17;2.40;;;1.35;;
5414;SDS011;2730;51.512;7.504;2023-04-03T10:15:46;3.58;;;1.63;;
5414;SDS011;2730;51.512;7.504;2023-04-03T10:18:23;2.22;;;1.30;;
5414;SDS011;2730;51.512;7.504;2023-04-03T10:20:59;3.67;;;1.38;;
5414;SDS011;2730;51.512;7.504;2023-04-03T10:23:33;5.95;;;1.38;;
5414;SDS011;2730;51.512;7.504;2023-04-03T10:26:08;8.43;;;1.65;;
5414;SDS011;2730;51.512;7.504;2023-04-03T10:28:43;2.72;;;1.13;;
5414;SDS011;2730;51.512;7.504;2023-04-03T10:31:20;1.60;;;1.50;;
5414;SDS011;2730;51.512;7.504;2023-04-03T10:33:53;2.75;;;1.20;;
5414;SDS011;2730;51.512;7.504;2023-04-03T10:36:29;1.75;;;1.20;;
5414;SDS011;2730;51.512;7.504;2023-04-03T10:39:04;5.30;;;1.55;;
5414;SDS011;2730;51.512;7.504;2023-04-03T10:41:43;8.60;;;1.63;;
5414;SDS011;2730;51.512;7.504;2023-04-03T10:44:24;1.83;;;1.10;;
5414;SDS011;2730;51.512;7.504;2023-04-03T10:46:58;2.30;;;1.10;;
5414;SDS011;2730;51.512;7.504;2023-04-03T10:49:34;1.30;;;1.20;;
5414;SDS011;2730;51.512;7.504;2023-04-03T10:52:14;1.40;;;1.00;;
5414;SDS011;2730;51.512;7.504;2023-04-03T10:54:49;2.25;;;1.33;;
5414;SDS011;2730;51.512;7.504;2023-04-03T10:57:23;5.43;;;1.10;;
5414;SDS011;2730;51.512;7.504;2023-04-03T10:59:53;1.10;;;1.10;;
5414;SDS011;2730;51.512;7.504;2023-04-03T11:02:25;1.85;;;1.38;;
5414;SDS011;2730;51.512;7.504;2023-04-03T11:04:55;4.50;;;1.10;;
5414;SDS011;2730;51.512;7.504;2023-04-03T11:07:28;1.25;;;1.00;;
5414;SDS011;2730;51.512;7.504;2023-04-03T11:10:00;3.70;;;1.50;;
5414;SDS011;2730;51.512;7.504;2023-04-03T11:12:32;2.65;;;1.23;;
5414;SDS011;2730;51.512;7.504;2023-04-03T11:15:04;1.20;;;1.10;;
5414;SDS011;2730;51.512;7.504;2023-04-03T11:17:38;1.70;;;1.20;;
5414;SDS011;2730;51.512;7.504;2023-04-03T11:20:10;2.08;;;1.00;;
5414;SDS011;2730;51.512;7.504;2023-04-03T11:22:45;2.80;;;1.30;;
5414;SDS011;2730;51.512;7.504;2023-04-03T11:25:18;3.72;;;0.95;;
5414;SDS011;2730;51.512;7.504;2023-04-03T11:27:48;1.38;;;0.90;;
5414;SDS011;2730;51.512;7.504;2023-04-03T11:30:20;1.88;;;1.10;;
5414;SDS011;2730;51.512;7.504;2023-04-03T11:35:51;1.00;;;0.98;;
5414;SDS011;2730;51.512;7.504;2023-04-03T11:38:23;4.30;;;1.40;;
5414;SDS011;2730;51.512;7.504;2023-04-03T11:40:54;5.85;;;1.27;;
5414;SDS011;2730;51.512;7.504;2023-04-03T11:43:23;1.13;;;1.02;;
5414;SDS011;2730;51.512;7.504;2023-04-03T11:45:56;5.30;;;1.35;;
5414;SDS011;2730;51.512;7.504;2023-04-03T12:09:25;1.45;;;1.17;;
5414;SDS011;2730;51.512;7.504;2023-04-03T12:12:01;1.50;;;0.90;;
5414;SDS011;2730;51.512;7.504;2023-04-03T12:14:50;3.95;;;1.15;;
5414;SDS011;2730;51.512;7.504;2023-04-03T12:17:20;1.90;;;1.00;;
5414;SDS011;2730;51.512;7.504;2023-04-03T12:19:51;1.38;;;1.10;;
5414;SDS011;2730;51.512;7.504;2023-04-03T12:22:20;2.28;;;1.00;;
5414;SDS011;2730;51.512;7.504;2023-04-03T12:24:47;2.75;;;0.95;;
5414;SDS011;2730;51.512;7.504;2023-04-03T12:27:27;0.70;;;0.70;;
5414;SDS011;2730;51.512;7.504;2023-04-03T12:30:06;2.10;;;1.10;;
5414;SDS011;2730;51.512;7.504;2023-04-03T12:32:43;1.77;;;0.85;;
5414;SDS011;2730;51.512;7.504;2023-04-03T12:35:24;3.78;;;0.90;;
5414;SDS011;2730;51.512;7.504;2023-04-03T12:38:12;2.75;;;1.30;;
5414;SDS011;2730;51.512;7.504;2023-04-03T12:40:50;0.93;;;0.90;;
5414;SDS011;2730;51.512;7.504;2023-04-03T12:46:14;1.02;;;1.00;;
5414;SDS011;2730;51.512;7.504;2023-04-03T12:48:48;4.30;;;0.90;;
5414;SDS011;2730;51.512;7.504;2023-04-03T12:51:17;1.70;;;0.90;;
5414;SDS011;2730;51.512;7.504;2023-04-03T12:53:48;0.80;;;0.80;;
5414;SDS011;2730;51.512;7.504;2023-04-03T12:56:19;2.55;;;0.90;;
5414;SDS011;2730;51.512;7.504;2023-04-03T12:58:47;1.00;;;0.90;;
5414;SDS011;2730;51.512;7.504;2023-04-03T13:01:16;1.10;;;1.00;;
5414;SDS011;2730;51.512;7.504;2023-04-03T13:03:45;2.35;;;1.00;;
5414;SDS011;2730;51.512;7.504;2023-04-03T13:06:14;6.03;;;1.40;;
5414;SDS011;2730;51.512;7.504;2023-04-03T13:08:53;2.22;;;1.10;;
5414;SDS011;2730;51.512;7.504;2023-04-03T13:11:23;0.80;;;0.80;;
5414;SDS011;2730;51.512;7.504;2023-04-03T13:13:55;2.65;;;1.05;;
5414;SDS011;2730;51.512;7.504;2023-04-03T13:16:23;2.55;;;1.30;;
5414;SDS011;2730;51.512;7.504;2023-04-03T13:18:50;1.25;;;1.15;;
5414;SDS011;2730;51.512;7.504;2023-04-03T13:21:18;2.15;;;0.80;;
5414;SDS011;2730;51.512;7.504;2023-04-03T13:23:48;0.80;;;0.80;;
5414;SDS011;2730;51.512;7.504;2023-04-03T13:26:20;8.10;;;1.05;;
5414;SDS011;2730;51.512;7.504;2023-04-03T13:28:49;6.38;;;1.20;;
5414;SDS011;2730;51.512;7.504;2023-04-03T13:31:21;2.45;;;1.00;;
5414;SDS011;2730;51.512;7.504;2023-04-03T13:33:55;1.35;;;0.95;;
5414;SDS011;2730;51.512;7.504;2023-04-03T13:36:26;4.22;;;1.05;;
5414;SDS011;2730;51.512;7.504;2023-04-03T13:38:59;3.60;;;1.20;;
5414;SDS011;2730;51.512;7.504;2023-04-03T13:41:31;2.70;;;1.10;;
5414;SDS011;2730;51.512;7.504;2023-04-03T13:44:25;2.55;;;1.15;;
5414;SDS011;2730;51.512;7.504;2023-04-03T13:46:55;1.60;;;1.00;;
5414;SDS011;2730;51.512;7.504;2023-04-03T13:49:27;1.42;;;0.80;;
5414;SDS011;2730;51.512;7.504;2023-04-03T13:51:57;1.27;;;1.00;;
5414;SDS011;2730;51.512;7.504;2023-04-03T13:54:25;6.32;;;1.25;;
5414;SDS011;2730;51.512;7.504;2023-04-03T13:56:57;1.98;;;0.80;;
5414;SDS011;2730;51.512;7.504;2023-04-03T13:59:27;2.78;;;1.20;;
5414;SDS011;2730;51.512;7.504;2023-04-03T14:02:05;3.22;;;2.15;;
5414;SDS011;2730;51.512;7.504;2023-04-03T14:04:45;1.10;;;1.00;;
5414;SDS011;2730;51.512;7.504;2023-04-03T14:07:15;1.92;;;0.88;;
5414;SDS011;2730;51.512;7.504;2023-04-03T14:09:45;2.45;;;0.90;;
5414;SDS011;2730;51.512;7.504;2023-04-03T14:12:14;1.00;;;1.00;;
5414;SDS011;2730;51.512;7.504;2023-04-03T14:14:42;1.90;;;1.08;;
5414;SDS011;2730;51.512;7.504;2023-04-03T14:17:13;2.55;;;1.05;;
5414;SDS011;2730;51.512;7.504;2023-04-03T14:19:41;1.00;;;0.90;;
5414;SDS011;2730;51.512;7.504;2023-04-03T14:22:13;1.90;;;0.90;;
5414;SDS011;2730;51.512;7.504;2023-04-03T14:24:42;1.40;;;1.00;;
5414;SDS011;2730;51.512;7.504;2023-04-03T14:27:11;2.60;;;1.00;;
5414;SDS011;2730;51.512;7.504;2023-04-03T14:29:44;1.20;;;0.95;;
5414;SDS011;2730;51.512;7.504;2023-04-03T14:32:12;4.03;;;0.98;;
5414;SDS011;2730;51.512;7.504;2023-04-03T14:34:40;1.38;;;1.25;;
5414;SDS011;2730;51.512;7.504;2023-04-03T14:37:09;4.88;;;0.95;;
5414;SDS011;2730;51.512;7.504;2023-04-03T14:39:38;3.00;;;1.20;;
5414;SDS011;2730;51.512;7.504;2023-04-03T14:42:05;3.47;;;1.80;;
5414;SDS011;2730;51.512;7.504;2023-04-03T14:44:37;3.40;;;1.10;;
5414;SDS011;2730;51.512;7.504;2023-04-03T14:47:04;1.20;;;1.10;;
5414;SDS011;2730;51.512;7.504;2023-04-03T14:49:31;1.55;;;1.15;;
5414;SDS011;2730;51.512;7.504;2023-04-03T14:51:58;2.72;;;1.20;;
5414;SDS011;2730;51.512;7.504;2023-04-03T14:54:25;1.67;;;1.10;;
5414;SDS011;2730;51.512;7.504;2023-04-03T14:56:54;1.98;;;1.20;;
5414;SDS011;2730;51.512;7.504;2023-04-03T14:59:22;2.25;;;0.88;;
5414;SDS011;2730;51.512;7.504;2023-04-03T15:01:50;1.30;;;1.20;;
5414;SDS011;2730;51.512;7.504;2023-04-03T15:04:18;4.68;;;1.30;;
5414;SDS011;2730;51.512;7.504;2023-04-03T15:06:46;4.85;;;1.38;;
5414;SDS011;2730;51.512;7.504;2023-04-03T15:09:18;1.42;;;1.27;;
5414;SDS011;2730;51.512;7.504;2023-04-03T15:11:47;1.38;;;1.10;;
5414;SDS011;2730;51.512;7.504;2023-04-03T15:14:14;1.90;;;1.00;;
5414;SDS011;2730;51.512;7.504;2023-04-03T15:16:41;1.13;;;1.00;;
5414;SDS011;2730;51.512;7.504;2023-04-03T15:19:09;2.95;;;1.10;;
5414;SDS011;2730;51.512;7.504;2023-04-03T15:21:36;3.50;;;1.40;;
5414;SDS011;2730;51.512;7.504;2023-04-03T15:24:03;1.58;;;1.05;;
5414;SDS011;2730;51.512;7.504;2023-04-03T15:26:30;5.80;;;1.20;;
5414;SDS011;2730;51.512;7.504;2023-04-03T15:28:57;5.88;;;1.67;;
5414;SDS011;2730;51.512;7.504;2023-04-03T15:31:24;1.20;;;1.10;;
5414;SDS011;2730;51.512;7.504;2023-04-03T15:33:51;1.45;;;1.00;;
5414;SDS011;2730;51.512;7.504;2023-04-03T15:36:19;1.90;;;1.10;;
5414;SDS011;2730;51.512;7.504;2023-04-03T15:38:46;1.10;;;1.00;;
5414;SDS011;2730;51.512;7.504;2023-04-03T15:41:12;1.33;;;1.10;;
5414;SDS011;2730;51.512;7.504;2023-04-03T15:43:39;4.22;;;1.13;;
5414;SDS011;2730;51.512;7.504;2023-04-03T15:46:06;2.35;;;1.08;;
5414;SDS011;2730;51.512;7.504;2023-04-03T15:48:33;3.58;;;1.30;;
5414;SDS011;2730;51.512;7.504;2023-04-03T15:51:00;1.20;;;1.10;;
5414;SDS011;2730;51.512;7.504;2023-04-03T15:53:28;1.50;;;1.13;;
5414;SDS011;2730;51.512;7.504;2023-04-03T15:55:55;3.70;;;1.45;;